Airfield :
LOGIN :

Register | Disclaimer

   EN    FR    IT 

 










Legend :    VFR   Marginal VFR   IFR   Intensive IFR   Very Intensive IFR
Visi :
Ceiling :
>= 8 km
>= 3000ft
5 to 8 km
1000 to 3000 ft
1500m to 5 km
500 to 1000 ft
800 to 1500m
200 to 500 ft
< 800m
< 200 ft
Symbols :   Thunderstorms  Fog  Heavy snow  Heavy precipitations  Wind > 20 kt
SIGMETs :     Misc.  Thunderstorms  Icing  Turbulence  Mountain Waves  Volcanic Ashes







- Airport Elevation : 84 ft
- Download approach charts


LFBC - Cazaux

CURRENT METAR :
  • 181200Z AUTO 05005KT 020V080 CAVOK 12/06 Q1025

EXPIRED METARs :
  • 181130Z AUTO 05005KT 020V080 CAVOK 11/06 Q1025
  • 181100Z AUTO 06005KT CAVOK 10/06 Q1026
  • 181030Z AUTO 06006KT 030V090 CAVOK 09/06 Q1026
  • 181000Z AUTO 05007KT CAVOK 08/05 Q1026
  • 180930Z AUTO 04005KT CAVOK 07/05 Q1026

TAF TAF LFBC
Valid from the 17 at 15:00 until the 18 at 15:00 UTC


171400Z 1715/1815 33005KT CAVOK
BECMG 1723/1801 0500 FG VV///
BECMG 1807/1809 9999 NSW FEW030
No reported NOTAMs for that airfield.



MET'MAP, your aeronautical weather chart ! - Copyright ORBIFLY December 2007 - Disclaimer

ORBIFLY MET'MAP TEAM :

Programming & Development : Alexandra Zaïnal
Concept & Development : Baudouin d'Aumeries
Co-Development & Prog : Marc-Olivier Méhu
Technical & hardware support : Manuel Goepfert

Contact : metmap@orbifly.com




SOURCES & CREDITS :

   NOAA